Time;durP1;ratioP1;P1;durP2;ratioP2;P2;SDS_P1;SDS_P2;PMS_P1;PMS_P2;Temp;Humidity;BMP_temperature;BMP_pressure;BME280_temperature;BME280_humidity;BME280_pressure;Samples;Min_cycle;Max_cycle;Signal;HPM_P1;HPM_P2
2023/09/25 00:00:34;;;;;;;6.57;3.00;;;13.70;99.90;;;;;;5018631;28;20037;-79
2023/09/25 00:03:00;;;;;;;7.38;3.00;;;13.70;99.90;;;;;;5018778;28;20054;-79
2023/09/25 00:05:28;;;;;;;5.63;2.80;;;13.90;99.90;;;;;;5011270;28;20048;-79
2023/09/25 00:07:54;;;;;;;6.80;2.75;;;13.70;99.90;;;;;;5026038;28;20085;-79
2023/09/25 00:10:20;;;;;;;4.63;2.60;;;13.90;99.90;;;;;;5015439;28;20056;-79
2023/09/25 00:12:48;;;;;;;5.97;2.80;;;14.20;99.90;;;;;;5036692;28;20034;-80
2023/09/25 00:15:14;;;;;;;7.97;2.72;;;13.60;99.90;;;;;;5010995;28;20393;-80
2023/09/25 00:17:42;;;;;;;9.05;2.80;;;13.60;99.90;;;;;;5032035;28;20036;-80
2023/09/25 00:20:10;;;;;;;7.05;3.08;;;13.50;99.90;;;;;;5024807;28;20483;-80
2023/09/25 00:22:40;;;;;;;7.35;2.92;;;13.50;99.90;;;;;;5013641;28;20033;-80
2023/09/25 00:25:06;;;;;;;6.30;3.17;;;13.50;99.90;;;;;;5012712;28;20485;-80
2023/09/25 00:27:32;;;;;;;5.47;2.92;;;13.50;99.90;;;;;;5016026;28;20040;-79
2023/09/25 00:29:58;;;;;;;6.28;3.00;;;13.50;99.90;;;;;;5048179;28;20472;-79
2023/09/25 00:32:24;;;;;;;5.55;2.90;;;13.50;99.90;;;;;;5018029;28;20045;-79
2023/09/25 00:34:50;;;;;;;5.55;2.88;;;13.40;99.90;;;;;;5049550;28;20034;-79
2023/09/25 00:37:15;;;;;;;5.20;2.85;;;13.40;99.90;;;;;;5014700;28;20032;-79
2023/09/25 00:39:42;;;;;;;6.28;2.80;;;13.40;99.90;;;;;;5051874;28;20029;-79
2023/09/25 00:42:10;;;;;;;6.75;3.00;;;13.40;99.90;;;;;;5028579;28;20041;-79
2023/09/25 00:44:35;;;;;;;5.72;2.92;;;13.60;99.90;;;;;;5032232;28;20049;-79
2023/09/25 00:47:03;;;;;;;5.45;3.10;;;13.80;99.90;;;;;;5019622;28;20051;-79
2023/09/25 00:49:30;;;;;;;5.55;2.90;;;13.30;99.90;;;;;;5016467;28;20041;-79
2023/09/25 00:51:56;;;;;;;6.47;2.90;;;13.30;99.90;;;;;;5018329;28;20157;-79
2023/09/25 00:54:22;;;;;;;4.70;2.80;;;13.30;99.90;;;;;;5014906;28;20128;-79
2023/09/25 00:56:48;;;;;;;5.15;2.97;;;13.30;99.90;;;;;;5010613;28;20044;-79
2023/09/25 00:59:16;;;;;;;7.40;3.08;;;13.30;99.90;;;;;;5026867;28;20136;-79
2023/09/25 01:01:45;;;;;;;6.35;2.95;;;13.30;99.90;;;;;;5019149;28;20033;-79
2023/09/25 01:04:12;;;;;;;6.13;3.15;;;13.20;99.90;;;;;;5027714;28;20041;-79
2023/09/25 01:06:38;;;;;;;7.07;2.97;;;13.20;99.90;;;;;;5007307;28;20131;-79
2023/09/25 01:09:04;;;;;;;6.90;2.97;;;13.60;99.90;;;;;;5025054;28;20044;-79
2023/09/25 01:11:30;;;;;;;8.85;2.95;;;13.70;99.90;;;;;;5029786;28;20052;-79
2023/09/25 01:13:55;;;;;;;7.57;3.10;;;13.20;99.90;;;;;;5016832;28;20041;-79
2023/09/25 01:16:24;;;;;;;4.72;2.95;;;13.20;99.90;;;;;;5028377;28;20412;-79
2023/09/25 01:18:50;;;;;;;5.20;2.95;;;13.20;99.90;;;;;;5011606;28;20055;-79
2023/09/25 01:21:16;;;;;;;7.13;3.03;;;13.20;99.90;;;;;;5031778;28;20041;-79
2023/09/25 01:23:42;;;;;;;4.05;3.10;;;13.20;99.90;;;;;;5011575;28;20030;-79
2023/09/25 01:26:08;;;;;;;11.75;3.75;;;13.20;99.90;;;;;;5027042;28;20121;-79
2023/09/25 01:28:36;;;;;;;7.88;3.55;;;13.20;99.90;;;;;;5010396;28;20556;-79
2023/09/25 01:31:02;;;;;;;7.60;3.20;;;13.20;99.90;;;;;;5012109;28;20041;-79
2023/09/25 01:33:28;;;;;;;5.82;3.22;;;13.20;99.90;;;;;;5031696;28;20482;-79
2023/09/25 01:35:53;;;;;;;5.28;3.20;;;13.10;99.90;;;;;;5042478;28;20128;-78
2023/09/25 01:38:21;;;;;;;4.50;2.72;;;13.10;99.90;;;;;;5006320;28;20575;-79
2023/09/25 01:40:47;;;;;;;5.75;3.00;;;13.10;99.90;;;;;;5007624;28;20036;-79
2023/09/25 01:43:16;;;;;;;5.95;3.03;;;13.10;99.90;;;;;;5025155;28;20516;-79
2023/09/25 01:45:41;;;;;;;6.22;3.22;;;13.10;99.90;;;;;;5028961;28;20117;-79
2023/09/25 01:48:07;;;;;;;5.80;3.20;;;13.00;99.90;;;;;;5030274;28;20127;-79
2023/09/25 01:50:34;;;;;;;7.32;3.10;;;13.00;99.90;;;;;;5016050;28;20069;-79
2023/09/25 01:53:01;;;;;;;5.93;3.17;;;13.00;99.90;;;;;;5047629;28;20467;-79
2023/09/25 01:55:29;;;;;;;6.97;3.35;;;13.00;99.90;;;;;;5017641;28;20040;-79
2023/09/25 01:57:54;;;;;;;7.03;3.33;;;13.00;99.90;;;;;;5032932;28;20041;-79
2023/09/25 02:00:20;;;;;;;7.22;3.40;;;13.00;99.90;;;;;;5022180;28;20045;-79
2023/09/25 02:02:46;;;;;;;5.32;3.15;;;13.00;99.90;;;;;;5025699;28;20040;-79
2023/09/25 02:05:12;;;;;;;8.93;3.55;;;13.00;99.90;;;;;;5033319;28;20044;-79
2023/09/25 02:07:38;;;;;;;7.43;3.60;;;13.00;99.90;;;;;;5047767;28;20090;-79
2023/09/25 02:10:06;;;;;;;5.97;3.47;;;13.00;99.90;;;;;;5014752;28;20075;-78
2023/09/25 02:12:33;;;;;;;6.50;3.47;;;12.90;99.90;;;;;;5025879;28;20044;-79
2023/09/25 02:15:02;;;;;;;10.13;4.72;;;12.90;99.90;;;;;;5032387;28;20037;-78
2023/09/25 02:17:29;;;;;;;8.23;3.60;;;12.90;99.90;;;;;;5009522;28;20033;-79
2023/09/25 02:20:10;;;;;;;4.10;3.10;;;12.90;99.90;;;;;;5013327;28;20494;-79
2023/09/25 02:22:36;;;;;;;8.30;3.63;;;12.90;99.90;;;;;;5013464;28;20033;-80
2023/09/25 02:25:02;;;;;;;8.63;3.55;;;12.90;99.90;;;;;;5027799;28;20040;-79
2023/09/25 02:27:29;;;;;;;6.88;3.40;;;12.90;99.90;;;;;;5016796;28;20044;-79
2023/09/25 02:29:55;;;;;;;6.97;4.05;;;12.90;99.90;;;;;;5034139;28;20154;-79
2023/09/25 02:32:22;;;;;;;7.18;3.60;;;12.90;99.90;;;;;;5027508;28;20127;-79
2023/09/25 02:34:48;;;;;;;5.22;3.20;;;12.80;99.90;;;;;;5047874;28;20044;-79
2023/09/25 02:37:15;;;;;;;6.60;3.53;;;12.80;99.90;;;;;;5044137;28;20049;-79
2023/09/25 02:39:41;;;;;;;8.15;3.65;;;13.20;99.90;;;;;;5010409;28;20136;-79
2023/09/25 02:42:07;;;;;;;8.48;3.55;;;12.80;99.90;;;;;;5045336;28;20519;-79
2023/09/25 02:44:33;;;;;;;7.45;3.70;;;12.80;99.90;;;;;;5023801;28;20467;-79
2023/09/25 02:46:59;;;;;;;6.43;3.70;;;12.80;99.90;;;;;;5017064;28;20037;-79
2023/09/25 02:49:26;;;;;;;7.63;3.40;;;13.00;99.90;;;;;;5006987;28;20512;-79
2023/09/25 02:51:51;;;;;;;5.63;3.17;;;12.80;99.90;;;;;;5015541;28;20095;-79
2023/09/25 02:54:17;;;;;;;6.60;3.42;;;12.80;99.90;;;;;;5027353;28;20520;-79
2023/09/25 02:56:42;;;;;;;6.22;3.60;;;12.70;99.90;;;;;;5008671;28;20522;-79
2023/09/25 02:59:09;;;;;;;9.70;3.78;;;12.80;99.90;;;;;;5043179;28;20526;-79
2023/09/25 03:01:35;;;;;;;5.10;3.40;;;12.80;99.90;;;;;;5039791;28;20128;-79
2023/09/25 03:04:01;;;;;;;5.97;3.50;;;13.10;99.90;;;;;;5032378;28;20115;-79
2023/09/25 03:06:26;;;;;;;8.00;4.03;;;13.00;99.90;;;;;;5042148;28;20079;-79
2023/09/25 03:08:52;;;;;;;5.15;3.30;;;12.80;99.90;;;;;;5014053;28;20122;-79
2023/09/25 03:11:17;;;;;;;5.53;3.22;;;12.80;99.90;;;;;;5023820;28;20041;-79
2023/09/25 03:13:43;;;;;;;4.93;3.28;;;12.80;99.90;;;;;;5041622;28;20477;-80
2023/09/25 03:16:17;;;;;;;8.80;3.72;;;12.80;99.90;;;;;;5024121;28;20033;-79
2023/09/25 03:18:43;;;;;;;10.52;3.42;;;12.70;99.90;;;;;;5016742;28;20578;-79
2023/09/25 03:21:14;;;;;;;6.97;3.53;;;13.20;99.90;;;;;;5026117;28;20045;-79
2023/09/25 03:23:41;;;;;;;7.13;3.58;;;12.70;99.90;;;;;;5034938;28;20481;-79
2023/09/25 03:26:20;;;;;;;5.25;3.47;;;12.90;99.90;;;;;;5008714;28;20048;-79
2023/09/25 03:28:46;;;;;;;6.70;3.38;;;12.70;99.90;;;;;;5021249;28;20051;-79
2023/09/25 03:31:12;;;;;;;5.45;3.47;;;12.80;99.90;;;;;;5024473;28;20036;-79
2023/09/25 03:33:39;;;;;;;5.97;3.45;;;12.80;99.90;;;;;;5044498;28;20045;-79
2023/09/25 03:36:05;;;;;;;6.60;3.72;;;12.80;99.90;;;;;;5028900;28;20134;-79
2023/09/25 03:38:31;;;;;;;5.85;3.35;;;12.80;99.90;;;;;;5039892;28;20082;-79
2023/09/25 03:40:57;;;;;;;6.28;3.55;;;12.80;99.90;;;;;;5022082;28;20057;-79
2023/09/25 03:43:23;;;;;;;6.63;3.38;;;12.80;99.90;;;;;;5028054;28;20497;-79
2023/09/25 03:45:49;;;;;;;7.05;3.72;;;12.80;99.90;;;;;;5015498;28;20036;-79
2023/09/25 03:48:15;;;;;;;5.40;3.95;;;12.70;99.90;;;;;;5048136;28;20044;-79
2023/09/25 03:50:43;;;;;;;7.63;3.80;;;12.70;99.90;;;;;;5031528;28;20037;-79
2023/09/25 03:53:11;;;;;;;5.70;3.67;;;12.80;99.90;;;;;;5006552;28;20041;-79
2023/09/25 03:55:36;;;;;;;8.23;4.05;;;12.80;99.90;;;;;;5027927;28;20037;-79
2023/09/25 03:58:02;;;;;;;6.25;3.83;;;12.80;99.90;;;;;;5031047;28;20076;-79
2023/09/25 04:00:28;;;;;;;6.53;3.33;;;12.70;99.90;;;;;;5008100;28;20120;-79
2023/09/25 04:02:54;;;;;;;6.07;3.30;;;12.70;99.90;;;;;;5029273;28;20240;-79
2023/09/25 04:05:19;;;;;;;9.85;3.50;;;12.80;99.90;;;;;;5016140;28;20573;-79
2023/09/25 04:07:45;;;;;;;6.72;3.85;;;12.80;99.90;;;;;;5048627;28;20048;-79
2023/09/25 04:10:11;;;;;;;8.75;3.55;;;13.40;99.90;;;;;;5007131;28;20412;-79
2023/09/25 04:12:38;;;;;;;7.45;4.00;;;12.70;99.90;;;;;;5015861;28;20124;-79
2023/09/25 04:15:08;;;;;;;6.28;3.70;;;12.70;99.90;;;;;;5050616;28;20487;-78
2023/09/25 04:17:33;;;;;;;5.78;3.50;;;12.70;99.90;;;;;;5026821;28;20095;-78
2023/09/25 04:19:59;;;;;;;7.05;3.65;;;12.70;99.90;;;;;;5052490;28;20046;-78
2023/09/25 04:22:25;;;;;;;6.20;3.53;;;12.70;99.90;;;;;;5017582;28;20037;-78
2023/09/25 04:24:52;;;;;;;7.80;3.50;;;12.70;99.90;;;;;;5029731;28;20044;-79
2023/09/25 04:27:18;;;;;;;7.57;3.30;;;13.10;99.90;;;;;;5038830;28;20052;-79
2023/09/25 04:29:44;;;;;;;5.68;3.38;;;12.90;99.90;;;;;;5020944;28;20106;-79
2023/09/25 04:32:10;;;;;;;5.65;3.80;;;13.10;99.90;;;;;;5041306;28;20072;-78
2023/09/25 04:34:39;;;;;;;6.88;3.67;;;12.70;99.90;;;;;;5042852;28;20048;-79
2023/09/25 04:37:08;;;;;;;9.18;4.15;;;12.70;99.90;;;;;;5041652;28;20285;-80
2023/09/25 04:39:35;;;;;;;6.93;3.70;;;12.60;99.90;;;;;;5002882;28;20029;-79
2023/09/25 04:42:00;;;;;;;8.57;3.60;;;13.20;99.90;;;;;;5026741;28;20081;-79
2023/09/25 04:44:26;;;;;;;9.55;3.58;;;12.70;99.90;;;;;;5027176;28;20101;-79
2023/09/25 04:46:52;;;;;;;8.05;3.60;;;12.70;99.90;;;;;;5035366;28;20511;-78
2023/09/25 04:49:18;;;;;;;7.07;3.58;;;12.70;99.90;;;;;;5013492;28;20045;-79
2023/09/25 04:51:43;;;;;;;8.38;3.75;;;12.70;99.90;;;;;;5038787;28;20056;-79
2023/09/25 04:54:10;;;;;;;8.27;3.83;;;12.70;99.90;;;;;;5023808;28;20524;-79
2023/09/25 04:56:37;;;;;;;7.45;3.70;;;12.70;99.90;;;;;;5026906;28;20075;-79
2023/09/25 04:59:05;;;;;;;6.28;3.90;;;12.70;99.90;;;;;;5039027;28;20052;-78
2023/09/25 05:01:30;;;;;;;6.03;4.00;;;12.70;99.90;;;;;;5026689;28;20100;-78
2023/09/25 05:03:56;;;;;;;6.28;3.72;;;12.70;99.90;;;;;;5050988;28;20053;-78
2023/09/25 05:06:21;;;;;;;8.07;3.67;;;12.60;99.90;;;;;;5016209;28;20039;-77
2023/09/25 05:08:48;;;;;;;7.90;3.72;;;12.70;99.90;;;;;;5030057;28;20433;-78
2023/09/25 05:11:13;;;;;;;6.30;3.70;;;12.70;99.90;;;;;;5013867;28;20051;-78
2023/09/25 05:13:39;;;;;;;5.88;3.38;;;12.60;99.90;;;;;;5040748;28;20516;-78
2023/09/25 05:16:06;;;;;;;6.03;3.38;;;12.70;99.90;;;;;;5045784;28;20041;-78
2023/09/25 05:18:32;;;;;;;7.57;3.80;;;12.60;99.90;;;;;;5017809;28;20473;-78
2023/09/25 05:20:58;;;;;;;7.43;3.45;;;12.70;99.90;;;;;;5023900;28;20040;-78
2023/09/25 05:23:24;;;;;;;5.35;3.17;;;12.70;99.90;;;;;;5052363;28;20366;-78
2023/09/25 05:25:50;;;;;;;6.00;3.50;;;12.60;99.90;;;;;;5010528;28;20079;-78
2023/09/25 05:28:15;;;;;;;6.05;3.50;;;12.60;99.90;;;;;;5038815;28;20049;-78
2023/09/25 05:30:41;;;;;;;6.35;3.65;;;12.60;99.90;;;;;;5030794;28;20041;-78
2023/09/25 05:33:06;;;;;;;10.73;3.65;;;12.60;99.90;;;;;;5015322;28;20041;-78
2023/09/25 05:35:32;;;;;;;7.07;3.67;;;12.60;99.90;;;;;;5012940;28;20067;-78
2023/09/25 05:37:57;;;;;;;6.07;3.47;;;12.60;99.90;;;;;;5017716;28;20519;-78
2023/09/25 05:40:23;;;;;;;9.23;3.97;;;12.60;99.90;;;;;;5052063;28;20040;-78
2023/09/25 05:42:49;;;;;;;6.32;3.47;;;12.60;99.90;;;;;;5016366;28;20042;-78
2023/09/25 05:45:17;;;;;;;7.75;4.07;;;12.60;99.90;;;;;;5045149;28;20041;-78
2023/09/25 05:47:44;;;;;;;6.97;3.88;;;12.60;99.90;;;;;;5009664;28;20088;-78
2023/09/25 05:50:11;;;;;;;8.25;3.88;;;12.70;99.90;;;;;;5031227;28;20438;-78
2023/09/25 05:52:38;;;;;;;4.97;3.58;;;12.60;99.90;;;;;;5029903;28;20138;-78
2023/09/25 05:55:06;;;;;;;7.75;3.67;;;12.60;99.90;;;;;;5052709;28;20400;-78
2023/09/25 05:57:32;;;;;;;6.45;3.58;;;12.60;99.90;;;;;;5013902;28;20493;-78
2023/09/25 05:59:59;;;;;;;5.10;3.60;;;12.60;99.90;;;;;;5032486;28;20048;-78
2023/09/25 06:02:28;;;;;;;7.28;3.67;;;12.60;99.90;;;;;;5032604;28;20037;-78
2023/09/25 06:04:54;;;;;;;5.32;3.35;;;12.60;99.90;;;;;;5013352;28;20032;-78
2023/09/25 06:07:21;;;;;;;7.57;3.53;;;12.60;99.90;;;;;;5017736;28;20068;-78
2023/09/25 06:09:47;;;;;;;8.50;3.63;;;12.70;99.90;;;;;;5018293;28;20397;-78
2023/09/25 06:12:15;;;;;;;6.78;3.65;;;12.60;99.90;;;;;;5051875;28;20041;-78
2023/09/25 06:14:41;;;;;;;8.63;3.80;;;12.60;99.90;;;;;;5048792;28;20477;-77
2023/09/25 06:17:09;;;;;;;6.75;3.55;;;12.70;99.90;;;;;;5031844;28;20098;-77
2023/09/25 06:19:37;;;;;;;9.80;3.50;;;13.10;99.90;;;;;;5046818;28;20606;-77
2023/09/25 06:22:03;;;;;;;6.63;3.50;;;13.00;99.90;;;;;;5015401;28;20049;-77
2023/09/25 06:24:31;;;;;;;9.23;4.00;;;12.70;99.90;;;;;;5023960;28;20412;-77
2023/09/25 06:26:57;;;;;;;5.25;3.50;;;12.80;99.90;;;;;;5028823;28;20037;-77
2023/09/25 06:29:24;;;;;;;7.78;4.30;;;12.80;99.90;;;;;;5032891;28;20047;-77
2023/09/25 06:31:50;;;;;;;5.47;3.38;;;12.60;99.90;;;;;;5033988;28;20369;-77
2023/09/25 06:34:16;;;;;;;5.65;3.25;;;12.80;99.90;;;;;;5028817;28;20032;-77
2023/09/25 06:36:42;;;;;;;5.95;3.28;;;12.90;99.90;;;;;;5030015;28;20065;-77
2023/09/25 06:39:09;;;;;;;6.72;3.72;;;12.90;99.90;;;;;;5032430;28;20501;-76
2023/09/25 06:41:43;;;;;;;6.95;3.78;;;13.00;99.90;;;;;;5025842;28;20100;-76
2023/09/25 06:44:09;;;;;;;6.63;3.40;;;13.00;99.90;;;;;;5013176;28;20068;-76
2023/09/25 06:46:37;;;;;;;5.55;3.25;;;13.00;99.90;;;;;;5039533;28;20092;-76
2023/09/25 06:49:03;;;;;;;6.80;3.47;;;13.00;99.90;;;;;;5032961;28;20132;-77
2023/09/25 06:51:29;;;;;;;6.18;3.53;;;13.10;99.90;;;;;;5025313;28;20123;-77
2023/09/25 06:53:56;;;;;;;6.00;3.45;;;13.10;99.90;;;;;;5029116;28;20037;-77
2023/09/25 06:56:22;;;;;;;5.78;3.22;;;13.30;99.90;;;;;;5014657;28;20065;-78
2023/09/25 06:58:51;;;;;;;7.72;3.33;;;13.20;99.90;;;;;;5028564;28;20044;-78
2023/09/25 07:01:18;;;;;;;7.40;3.40;;;13.20;99.90;;;;;;5021967;28;20045;-77
2023/09/25 07:03:44;;;;;;;6.65;3.60;;;13.90;99.90;;;;;;5033557;28;20401;-77
2023/09/25 07:06:10;;;;;;;7.38;3.30;;;13.30;99.90;;;;;;5004748;28;20041;-78
2023/09/25 07:08:38;;;;;;;6.28;3.33;;;13.30;99.90;;;;;;5025222;28;20608;-77
2023/09/25 07:11:03;;;;;;;5.75;3.10;;;13.40;99.90;;;;;;5026141;28;20045;-77
2023/09/25 07:13:29;;;;;;;7.35;3.22;;;13.40;99.90;;;;;;5018836;28;20486;-77
2023/09/25 07:16:11;;;;;;;7.35;3.38;;;13.40;99.90;;;;;;5026381;28;20033;-78
2023/09/25 07:18:38;;;;;;;11.95;4.03;;;13.50;99.90;;;;;;5012359;28;20497;-78
2023/09/25 07:21:05;;;;;;;7.70;3.30;;;13.50;99.90;;;;;;5029612;28;20127;-78
2023/09/25 07:23:31;;;;;;;6.20;3.67;;;13.50;99.90;;;;;;5030937;28;20048;-78
2023/09/25 07:26:01;;;;;;;6.97;3.10;;;13.60;99.90;;;;;;5030508;28;20040;-78
2023/09/25 07:28:29;;;;;;;7.95;3.58;;;13.60;99.90;;;;;;5029992;28;20127;-78
2023/09/25 07:30:55;;;;;;;7.82;3.25;;;13.60;99.90;;;;;;5022587;28;20036;-78
2023/09/25 07:33:22;;;;;;;7.22;3.58;;;13.70;99.90;;;;;;5017944;28;20072;-78
2023/09/25 07:35:48;;;;;;;7.25;3.67;;;13.70;99.90;;;;;;5032441;28;20057;-78
2023/09/25 07:38:13;;;;;;;4.97;3.10;;;13.80;99.90;;;;;;5028148;28;20056;-78
2023/09/25 07:40:39;;;;;;;7.07;3.45;;;13.80;99.90;;;;;;5025785;28;20469;-78
2023/09/25 07:43:05;;;;;;;7.78;3.55;;;13.90;99.90;;;;;;5028174;28;20095;-78
2023/09/25 07:45:32;;;;;;;4.57;3.03;;;13.90;99.90;;;;;;5034873;28;20095;-78
2023/09/25 07:47:57;;;;;;;5.00;2.85;;;13.90;99.90;;;;;;5036446;28;20041;-78
2023/09/25 07:50:25;;;;;;;6.05;3.20;;;14.00;99.90;;;;;;5028572;28;20404;-78
2023/09/25 07:52:55;;;;;;;8.52;3.60;;;14.10;99.90;;;;;;5044382;28;20048;-78
2023/09/25 07:55:23;;;;;;;5.82;3.22;;;14.10;99.90;;;;;;5030831;28;20041;-78
2023/09/25 07:57:50;;;;;;;8.77;3.38;;;14.10;99.90;;;;;;5010316;28;20550;-78
2023/09/25 08:02:52;;;;;;;8.40;3.83;;;14.30;99.90;;;;;;5023083;28;20040;-78
2023/09/25 08:05:22;;;;;;;6.60;3.30;;;14.40;99.90;;;;;;5029429;28;20282;-78
2023/09/25 08:07:49;;;;;;;7.70;3.85;;;14.50;99.90;;;;;;5045391;28;20072;-78
2023/09/25 08:10:15;;;;;;;9.35;3.55;;;14.50;99.90;;;;;;5031658;28;20500;-78
2023/09/25 08:12:43;;;;;;;7.45;3.25;;;14.60;99.90;;;;;;5053913;28;20076;-78
2023/09/25 08:15:10;;;;;;;6.35;3.75;;;14.60;99.90;;;;;;5013820;28;20067;-78
2023/09/25 08:17:36;;;;;;;7.07;3.10;;;14.70;99.90;;;;;;5007343;28;20041;-78
2023/09/25 08:20:13;;;;;;;6.43;3.42;;;14.70;99.90;;;;;;5031847;28;20029;-77
2023/09/25 08:22:40;;;;;;;6.38;2.88;;;14.80;99.90;;;;;;5043675;28;20456;-78
2023/09/25 08:25:06;;;;;;;8.25;3.55;;;14.80;99.90;;;;;;5027928;28;20498;-78
2023/09/25 08:27:31;;;;;;;7.90;3.08;;;14.90;99.90;;;;;;5018132;28;20123;-78
2023/09/25 08:29:58;;;;;;;5.57;2.67;;;14.90;99.90;;;;;;5026649;28;20132;-78
2023/09/25 08:32:24;;;;;;;5.30;3.00;;;14.90;99.90;;;;;;5029495;28;20041;-78
2023/09/25 08:34:50;;;;;;;5.80;2.75;;;15.20;99.90;;;;;;5014650;28;20052;-78
2023/09/25 08:37:16;;;;;;;6.28;3.20;;;15.00;99.90;;;;;;5050671;28;20041;-77
2023/09/25 08:39:42;;;;;;;5.00;2.72;;;15.00;99.90;;;;;;5009809;28;20099;-78
2023/09/25 08:42:09;;;;;;;6.47;2.53;;;15.10;99.90;;;;;;5003965;28;20116;-78
2023/09/25 08:44:36;;;;;;;7.18;2.80;;;15.20;99.90;;;;;;5044163;28;20049;-78
2023/09/25 08:47:02;;;;;;;6.38;2.78;;;15.30;99.90;;;;;;5025794;28;20068;-78
2023/09/25 08:49:29;;;;;;;4.95;2.72;;;15.40;99.90;;;;;;5019030;28;20072;-78
2023/09/25 08:51:55;;;;;;;6.53;2.88;;;15.50;99.90;;;;;;5035520;28;20391;-78
2023/09/25 08:54:22;;;;;;;6.80;2.80;;;15.60;99.90;;;;;;5026432;28;20056;-78
2023/09/25 08:56:48;;;;;;;9.23;3.05;;;15.70;99.90;;;;;;5017255;28;20119;-78
2023/09/25 08:59:14;;;;;;;4.80;2.60;;;15.70;99.90;;;;;;5025830;28;20036;-78
2023/09/25 09:01:42;;;;;;;4.93;2.47;;;15.80;99.90;;;;;;5027131;28;20090;-78
2023/09/25 09:04:10;;;;;;;7.35;2.75;;;16.00;99.90;;;;;;5035204;28;20091;-78
2023/09/25 09:06:35;;;;;;;5.30;2.53;;;16.00;99.90;;;;;;5033728;28;20656;-78
2023/09/25 09:09:02;;;;;;;4.25;2.28;;;16.10;99.90;;;;;;5022728;28;20033;-78
2023/09/25 09:11:27;;;;;;;4.90;2.28;;;16.10;99.90;;;;;;5027195;28;20052;-78
2023/09/25 09:13:54;;;;;;;5.38;2.78;;;16.10;99.90;;;;;;5030344;28;20045;-78
2023/09/25 09:16:20;;;;;;;5.47;2.40;;;16.40;99.90;;;;;;5026240;28;20370;-78
2023/09/25 09:18:48;;;;;;;5.72;2.50;;;16.20;99.90;;;;;;5041730;28;20096;-78
2023/09/25 09:21:27;;;;;;;6.18;2.45;;;16.30;99.90;;;;;;5008397;28;20366;-78
2023/09/25 09:23:55;;;;;;;7.30;2.47;;;16.40;99.90;;;;;;5049740;28;20227;-78
2023/09/25 09:26:21;;;;;;;5.53;2.30;;;16.50;99.90;;;;;;5034155;28;20051;-78
2023/09/25 09:28:47;;;;;;;4.88;2.45;;;16.60;99.90;;;;;;5021639;28;20045;-78
2023/09/25 09:31:14;;;;;;;4.47;2.40;;;16.70;99.90;;;;;;5038714;28;20089;-78
2023/09/25 09:33:43;;;;;;;7.03;2.40;;;16.80;99.90;;;;;;5031614;28;20037;-78
2023/09/25 09:36:12;;;;;;;4.72;2.40;;;16.80;99.90;;;;;;5040368;28;20052;-78
2023/09/25 09:38:42;;;;;;;5.20;2.30;;;16.90;99.90;;;;;;5033128;28;20060;-78
2023/09/25 09:41:08;;;;;;;5.15;2.60;;;16.90;99.90;;;;;;5034151;28;20045;-78
2023/09/25 09:43:35;;;;;;;5.47;2.38;;;17.00;99.90;;;;;;5041441;28;20069;-78
2023/09/25 09:46:01;;;;;;;4.75;1.98;;;17.00;99.90;;;;;;5005953;28;20037;-78
2023/09/25 09:48:29;;;;;;;4.47;2.55;;;17.20;99.90;;;;;;5027140;28;20569;-78
2023/09/25 09:51:00;;;;;;;5.20;2.47;;;17.30;99.90;;;;;;5025636;28;20531;-78
2023/09/25 09:53:29;;;;;;;6.20;2.15;;;17.30;99.90;;;;;;5032996;28;20440;-78
2023/09/25 09:55:56;;;;;;;4.43;2.28;;;17.60;99.90;;;;;;5025752;28;20036;-78
2023/09/25 09:58:28;;;;;;;6.53;2.10;;;17.70;99.90;;;;;;5005656;28;20413;-78
2023/09/25 10:01:00;;;;;;;6.78;2.35;;;17.90;99.90;;;;;;5009388;28;20032;-78
2023/09/25 10:03:28;;;;;;;4.05;2.45;;;17.90;99.90;;;;;;5027107;28;20040;-78
2023/09/25 10:05:56;;;;;;;4.38;2.00;;;18.00;99.90;;;;;;5014383;28;20033;-78
2023/09/25 10:08:22;;;;;;;6.05;2.30;;;18.30;99.90;;;;;;5011925;28;20496;-78
2023/09/25 10:10:49;;;;;;;4.43;2.45;;;18.20;99.90;;;;;;5019552;28;20041;-78
2023/09/25 10:13:24;;;;;;;3.50;1.85;;;18.30;99.90;;;;;;5033893;28;20079;-78
2023/09/25 10:15:58;;;;;;;4.22;2.15;;;18.40;99.90;;;;;;5018491;28;20040;-78
2023/09/25 10:18:26;;;;;;;4.80;2.30;;;18.70;99.90;;;;;;5043954;28;20408;-78
2023/09/25 10:21:01;;;;;;;5.38;2.42;;;18.60;99.90;;;;;;5026741;28;20407;-78
2023/09/25 10:23:29;;;;;;;5.25;2.42;;;18.70;99.90;;;;;;5042581;28;20040;-78
2023/09/25 10:25:57;;;;;;;4.70;2.33;;;18.60;99.90;;;;;;5027737;28;20041;-78
2023/09/25 10:28:36;;;;;;;4.35;2.20;;;18.80;99.90;;;;;;5010124;28;20052;-78
2023/09/25 10:31:03;;;;;;;4.63;2.08;;;18.80;99.90;;;;;;5024291;28;20465;-77
2023/09/25 10:33:33;;;;;;;4.38;2.22;;;18.80;99.90;;;;;;5026681;28;20105;-78
2023/09/25 10:36:01;;;;;;;4.30;2.28;;;18.80;99.90;;;;;;5016693;28;20037;-78
2023/09/25 10:38:29;;;;;;;3.35;2.13;;;18.80;99.90;;;;;;5030395;28;20049;-78
2023/09/25 10:40:58;;;;;;;4.43;2.10;;;18.90;99.90;;;;;;5020709;28;20037;-78
2023/09/25 10:43:25;;;;;;;4.93;2.60;;;19.00;99.90;;;;;;5034001;28;20049;-78
2023/09/25 10:45:54;;;;;;;6.10;2.58;;;19.10;99.90;;;;;;5007053;28;20440;-78
2023/09/25 10:48:22;;;;;;;3.58;1.98;;;19.20;99.90;;;;;;4998449;28;20049;-78
2023/09/25 10:50:49;;;;;;;3.72;2.08;;;19.20;99.90;;;;;;5014725;28;20037;-78
2023/09/25 10:53:23;;;;;;;5.45;2.22;;;19.30;99.90;;;;;;5034120;28;20040;-78
2023/09/25 10:55:49;;;;;;;7.57;2.40;;;19.30;99.90;;;;;;5047134;28;20037;-78
2023/09/25 10:58:17;;;;;;;4.70;2.08;;;19.30;99.90;;;;;;5029775;28;20631;-78
2023/09/25 11:00:45;;;;;;;3.53;1.98;;;19.40;99.90;;;;;;5014689;28;20424;-78
2023/09/25 11:03:11;;;;;;;4.82;2.40;;;19.50;99.90;;;;;;5033884;28;20041;-78
2023/09/25 11:05:38;;;;;;;4.07;2.20;;;19.60;99.90;;;;;;5027796;28;20041;-78
2023/09/25 11:08:15;;;;;;;7.60;2.95;;;19.70;99.90;;;;;;5008525;28;20053;-78
2023/09/25 11:10:43;;;;;;;3.30;1.90;;;19.60;99.90;;;;;;5029917;28;20091;-78
2023/09/25 11:13:09;;;;;;;3.50;2.28;;;19.70;99.90;;;;;;5014944;28;20048;-78
2023/09/25 11:15:38;;;;;;;4.10;2.22;;;19.80;99.90;;;;;;5032798;28;20044;-78
2023/09/25 11:18:07;;;;;;;5.47;2.40;;;19.90;99.90;;;;;;5008040;28;20041;-78
2023/09/25 11:20:37;;;;;;;3.42;1.90;;;20.00;99.90;;;;;;4997150;28;20136;-78
2023/09/25 11:23:09;;;;;;;5.22;2.13;;;20.10;99.90;;;;;;5031201;28;20063;-78
2023/09/25 11:25:46;;;;;;;3.30;2.20;;;20.20;99.90;;;;;;5049352;28;20048;-78
2023/09/25 11:28:13;;;;;;;5.28;2.10;;;20.30;99.90;;;;;;5007786;28;20088;-78
2023/09/25 11:30:40;;;;;;;6.15;2.08;;;20.40;99.90;;;;;;5028803;28;20103;-78
2023/09/25 11:33:11;;;;;;;4.68;2.13;;;20.40;99.90;;;;;;5010051;28;20052;-78
2023/09/25 11:35:39;;;;;;;5.55;2.33;;;20.40;99.90;;;;;;5025257;28;20048;-78
2023/09/25 11:38:17;;;;;;;5.13;2.13;;;20.40;99.90;;;;;;5025894;28;20037;-78
2023/09/25 11:40:45;;;;;;;4.45;2.13;;;20.50;99.90;;;;;;5047155;28;20114;-78
2023/09/25 11:43:12;;;;;;;5.82;2.22;;;20.70;99.90;;;;;;5048394;28;20043;-78
2023/09/25 11:45:39;;;;;;;5.40;2.30;;;20.60;99.90;;;;;;5029455;28;20413;-78
2023/09/25 11:48:08;;;;;;;3.70;2.00;;;20.70;99.90;;;;;;5021011;28;20045;-78
2023/09/25 11:50:35;;;;;;;4.95;2.60;;;20.70;99.90;;;;;;5042425;28;20036;-78
2023/09/25 11:53:00;;;;;;;3.92;2.35;;;20.90;99.90;;;;;;5025791;28;20045;-78
2023/09/25 11:55:27;;;;;;;7.10;3.15;;;20.80;99.90;;;;;;5046991;28;20091;-77
2023/09/25 11:57:52;;;;;;;4.38;2.17;;;20.80;99.90;;;;;;5015762;28;20265;-78
2023/09/25 12:00:18;;;;;;;4.50;2.72;;;20.90;99.90;;;;;;5043695;28;20037;-78
2023/09/25 12:02:48;;;;;;;5.18;2.20;;;20.90;99.90;;;;;;5021839;28;20033;-78
2023/09/25 12:05:17;;;;;;;4.45;2.40;;;20.90;99.90;;;;;;5020809;28;20049;-78
2023/09/25 12:07:44;;;;;;;4.78;2.30;;;20.80;99.90;;;;;;5031090;28;20045;-77
2023/09/25 12:10:15;;;;;;;8.23;3.10;;;20.80;99.90;;;;;;5021223;28;20454;-77
2023/09/25 12:12:41;;;;;;;;;;;20.70;99.90;;;;;;5022911;28;20389;-77
2023/09/25 12:15:08;;;;;;;7.03;2.80;;;20.60;99.90;;;;;;5026151;28;19917;-77
2023/09/25 12:17:38;;;;;;;9.68;3.30;;;20.60;99.90;;;;;;5027794;28;20615;-78
2023/09/25 12:20:15;;;;;;;7.13;3.45;;;20.60;99.90;;;;;;5030309;28;20037;-78
2023/09/25 12:22:45;;;;;;;4.90;2.40;;;20.60;99.90;;;;;;5011912;28;20336;-78
2023/09/25 12:25:13;;;;;;;4.43;2.25;;;20.70;99.90;;;;;;5016344;28;20040;-78
2023/09/25 12:27:40;;;;;;;4.88;2.22;;;20.70;99.90;;;;;;5019060;28;20236;-77
2023/09/25 12:30:16;;;;;;;5.75;1.90;;;20.60;99.90;;;;;;5027667;28;20045;-77
2023/09/25 12:32:43;;;;;;;4.35;2.30;;;20.60;99.90;;;;;;5048289;28;20033;-78
2023/09/25 12:35:14;;;;;;;6.15;2.50;;;20.60;99.90;;;;;;5039335;28;20489;-78
2023/09/25 12:37:42;;;;;;;5.50;2.33;;;20.50;99.90;;;;;;5008271;28;20539;-78
2023/09/25 12:40:08;;;;;;;6.25;2.00;;;20.50;99.90;;;;;;5028539;28;20072;-78
2023/09/25 12:42:34;;;;;;;4.80;2.30;;;20.50;99.90;;;;;;5049198;28;20048;-77
2023/09/25 12:45:03;;;;;;;5.32;2.33;;;20.60;99.90;;;;;;5027876;28;20393;-78
2023/09/25 12:47:30;;;;;;;5.13;2.17;;;20.40;99.90;;;;;;5017812;28;20044;-78
2023/09/25 12:49:58;;;;;;;7.00;2.60;;;20.40;99.90;;;;;;5027575;28;20037;-77